Time,TemperatureF,DewpointF,PressureIn,WindDirection,WindDirectionDegrees,WindSpeedMPH,WindSpeedGustMPH,Humidity,HourlyPrecipIn,Conditions,Clouds,dailyrainin,SoftwareType,DateUTC
2013-02-26 00:01:00,66.2,64.4,30.20,SSE,148,4.0,11.0,94,0.00,,,0.09,Wunderground v.1.15,2013-02-26 10:01:00,
2013-02-26 00:07:00,66.2,64.1,30.20,SE,146,4.0,11.0,93,0.00,,,0.09,Wunderground v.1.15,2013-02-26 10:07:00,
2013-02-26 00:12:00,66.2,64.1,30.20,SSE,148,4.0,11.0,93,0.00,,,0.09,Wunderground v.1.15,2013-02-26 10:12:00,
2013-02-26 00:18:00,66.2,64.1,30.20,SE,144,3.0,11.0,93,0.00,,,0.09,Wunderground v.1.15,2013-02-26 10:18:00,
2013-02-26 00:23:00,66.3,64.2,30.20,SSE,147,3.0,9.0,93,0.00,,,0.09,Wunderground v.1.15,2013-02-26 10:23:00,
2013-02-26 00:29:00,66.4,64.3,30.20,SE,145,4.0,9.0,93,0.00,,,0.09,Wunderground v.1.15,2013-02-26 10:29:00,
2013-02-26 00:35:00,66.5,64.4,30.20,SSE,151,4.0,9.0,93,0.00,,,0.09,Wunderground v.1.15,2013-02-26 10:35:00,
2013-02-26 00:40:00,66.5,64.4,30.20,ENE,76,3.0,8.0,93,0.00,,,0.09,Wunderground v.1.15,2013-02-26 10:40:00,
2013-02-26 00:46:00,66.5,64.4,30.20,SE,145,3.0,8.0,93,0.00,,,0.09,Wunderground v.1.15,2013-02-26 10:46:00,
2013-02-26 00:51:00,66.5,64.4,30.20,SE,136,3.0,9.0,93,0.00,,,0.09,Wunderground v.1.15,2013-02-26 10:51:00,
2013-02-26 00:57:00,66.5,64.4,30.20,SE,127,3.0,9.0,93,0.00,,,0.09,Wunderground v.1.15,2013-02-26 10:57:00,
2013-02-26 01:03:00,66.3,63.9,30.20,East,98,3.0,11.0,92,0.00,,,0.00,Wunderground v.1.15,2013-02-26 11:03:00,
2013-02-26 01:09:00,66.3,63.9,30.20,East,83,4.0,11.0,92,0.00,,,0.00,Wunderground v.1.15,2013-02-26 11:09:00,
2013-02-26 01:14:00,66.3,63.9,30.19,ESE,113,4.0,10.0,92,0.00,,,0.00,Wunderground v.1.15,2013-02-26 11:14:00,
2013-02-26 01:20:00,66.3,63.9,30.19,SE,136,4.0,12.0,92,0.00,,,0.00,Wunderground v.1.15,2013-02-26 11:20:00,
2013-02-26 01:25:00,66.3,63.9,30.19,SE,136,4.0,12.0,92,0.00,,,0.00,Wunderground v.1.15,2013-02-26 11:25:00,
2013-02-26 01:31:00,66.3,63.9,30.19,ESE,123,4.0,10.0,92,0.00,,,0.00,Wunderground v.1.15,2013-02-26 11:31:00,
2013-02-26 01:37:00,66.3,63.9,30.19,SE,139,4.0,10.0,92,0.00,,,0.00,Wunderground v.1.15,2013-02-26 11:37:00,
2013-02-26 01:43:00,66.3,63.6,30.19,ESE,117,5.0,10.0,91,0.00,,,0.00,Wunderground v.1.15,2013-02-26 11:43:00,
2013-02-26 01:49:00,66.4,63.7,30.19,SE,146,5.0,13.0,91,0.00,,,0.00,Wunderground v.1.15,2013-02-26 11:49:00,
2013-02-26 01:55:00,66.4,63.7,30.19,SSE,153,4.0,13.0,91,0.00,,,0.00,Wunderground v.1.15,2013-02-26 11:55:00,
2013-02-26 02:01:00,66.5,63.8,30.18,SE,146,3.0,4.0,91,0.00,,,0.00,Wunderground v.1.15,2013-02-26 12:01:00,
2013-02-26 02:07:00,66.5,63.8,30.18,SE,137,2.0,11.0,91,0.00,,,0.00,Wunderground v.1.15,2013-02-26 12:07:00,
2013-02-26 02:12:00,66.5,63.8,30.18,SE,128,3.0,11.0,91,0.00,,,0.00,Wunderground v.1.15,2013-02-26 12:12:00,
2013-02-26 02:18:00,66.6,63.9,30.18,SE,136,4.0,12.0,91,0.00,,,0.00,Wunderground v.1.15,2013-02-26 12:18:00,
2013-02-26 02:24:00,66.6,63.9,30.18,SSE,148,3.0,12.0,91,0.00,,,0.00,Wunderground v.1.15,2013-02-26 12:24:00,
2013-02-26 02:30:00,66.6,63.9,30.18,SE,146,5.0,12.0,91,0.00,,,0.00,Wunderground v.1.15,2013-02-26 12:30:00,
2013-02-26 02:35:00,66.7,64.0,30.18,ESE,122,6.0,13.0,91,0.00,,,0.00,Wunderground v.1.15,2013-02-26 12:35:00,
2013-02-26 02:41:00,66.6,63.6,30.18,SE,138,3.0,13.0,90,0.00,,,0.00,Wunderground v.1.15,2013-02-26 12:41:00,
2013-02-26 02:46:00,66.5,63.5,30.18,SE,139,3.0,13.0,90,0.00,,,0.00,Wunderground v.1.15,2013-02-26 12:46:00,
2013-02-26 02:52:00,66.5,63.8,30.17,SE,134,4.0,10.0,91,0.00,,,0.00,Wunderground v.1.15,2013-02-26 12:52:00,
2013-02-26 02:58:00,66.4,63.7,30.17,SSE,149,5.0,10.0,91,0.00,,,0.00,Wunderground v.1.15,2013-02-26 12:58:00,
2013-02-26 03:03:00,66.4,63.7,30.17,SSE,148,4.0,11.0,91,0.00,,,0.00,Wunderground v.1.15,2013-02-26 13:03:00,
2013-02-26 03:09:00,66.3,63.6,30.17,SSE,153,4.0,11.0,91,0.00,,,0.00,Wunderground v.1.15,2013-02-26 13:09:00,
2013-02-26 03:14:00,66.4,63.7,30.17,SSE,147,4.0,11.0,91,0.00,,,0.00,Wunderground v.1.15,2013-02-26 13:14:00,
2013-02-26 03:19:00,66.4,64.0,30.16,SE,139,4.0,11.0,92,0.00,,,0.01,Wunderground v.1.15,2013-02-26 13:19:00,
2013-02-26 03:24:00,66.3,63.6,30.16,ESE,107,4.0,11.0,91,0.00,,,0.01,Wunderground v.1.15,2013-02-26 13:24:00,
2013-02-26 03:30:00,66.1,63.4,30.16,ESE,123,4.0,4.0,91,0.00,,,0.01,Wunderground v.1.15,2013-02-26 13:30:00,
2013-02-26 03:36:00,65.9,63.2,30.16,SE,139,5.0,11.0,91,0.00,,,0.01,Wunderground v.1.15,2013-02-26 13:36:00,
2013-02-26 03:41:00,65.8,63.1,30.16,SE,136,4.0,11.0,91,0.00,,,0.01,Wunderground v.1.15,2013-02-26 13:41:00,
2013-02-26 03:47:00,65.7,63.0,30.16,SE,144,4.0,12.0,91,0.00,,,0.01,Wunderground v.1.15,2013-02-26 13:47:00,
2013-02-26 03:53:00,65.8,63.1,30.16,SSE,156,4.0,12.0,91,0.00,,,0.01,Wunderground v.1.15,2013-02-26 13:53:00,
2013-02-26 03:58:00,65.9,63.2,30.16,SSE,155,2.0,12.0,91,0.00,,,0.01,Wunderground v.1.15,2013-02-26 13:58:00,
2013-02-26 04:03:00,65.9,63.5,30.16,ESE,114,2.0,9.0,92,0.00,,,0.01,Wunderground v.1.15,2013-02-26 14:03:00,
2013-02-26 04:09:00,66.0,63.6,30.16,SE,145,4.0,9.0,92,0.00,,,0.01,Wunderground v.1.15,2013-02-26 14:09:00,
2013-02-26 04:14:00,66.1,63.7,30.16,SSE,148,4.0,9.0,92,0.00,,,0.01,Wunderground v.1.15,2013-02-26 14:14:00,
2013-02-26 04:20:00,66.1,63.7,30.16,ESE,117,3.0,12.0,92,0.00,,,0.01,Wunderground v.1.15,2013-02-26 14:20:00,
2013-02-26 04:26:00,66.0,63.6,30.16,SSE,148,3.0,12.0,92,0.00,,,0.01,Wunderground v.1.15,2013-02-26 14:26:00,
2013-02-26 04:31:00,65.8,63.4,30.16,SE,146,4.0,12.0,92,0.00,,,0.01,Wunderground v.1.15,2013-02-26 14:31:00,
2013-02-26 04:37:00,65.8,63.4,30.16,SSE,157,5.0,12.0,92,0.00,,,0.01,Wunderground v.1.15,2013-02-26 14:37:00,
2013-02-26 04:43:00,65.8,63.4,30.16,SE,135,5.0,11.0,92,0.00,,,0.01,Wunderground v.1.15,2013-02-26 14:43:00,
2013-02-26 04:48:00,65.8,63.4,30.16,SE,139,4.0,12.0,92,0.00,,,0.01,Wunderground v.1.15,2013-02-26 14:48:00,
2013-02-26 04:54:00,65.6,62.9,30.16,SSE,148,4.0,12.0,91,0.00,,,0.01,Wunderground v.1.15,2013-02-26 14:54:00,
2013-02-26 04:59:00,65.6,62.9,30.16,SE,136,5.0,12.0,91,0.00,,,0.01,Wunderground v.1.15,2013-02-26 14:59:00,
2013-02-26 05:04:00,65.5,62.8,30.17,SE,136,4.0,12.0,91,0.00,,,0.02,Wunderground v.1.15,2013-02-26 15:04:00,
2013-02-26 05:10:00,65.5,62.8,30.17,SSE,152,3.0,11.0,91,0.00,,,0.02,Wunderground v.1.15,2013-02-26 15:10:00,
2013-02-26 05:16:00,65.4,62.7,30.16,SE,140,4.0,11.0,91,0.00,,,0.02,Wunderground v.1.15,2013-02-26 15:16:00,
2013-02-26 05:22:00,65.3,62.6,30.16,SE,141,5.0,10.0,91,0.00,,,0.02,Wunderground v.1.15,2013-02-26 15:22:00,
2013-02-26 05:27:00,65.3,62.6,30.16,ESE,109,5.0,10.0,91,0.00,,,0.02,Wunderground v.1.15,2013-02-26 15:27:00,
2013-02-26 05:33:00,65.4,62.7,30.16,SSE,153,6.0,12.0,91,0.00,,,0.02,Wunderground v.1.15,2013-02-26 15:33:00,
2013-02-26 05:39:00,65.5,62.8,30.17,SE,130,6.0,12.0,91,0.00,,,0.02,Wunderground v.1.15,2013-02-26 15:39:00,
2013-02-26 05:44:00,65.6,62.9,30.16,SSE,153,6.0,12.0,91,0.00,,,0.02,Wunderground v.1.15,2013-02-26 15:44:00,
2013-02-26 05:50:00,65.6,62.9,30.16,SSE,147,4.0,13.0,91,0.00,,,0.03,Wunderground v.1.15,2013-02-26 15:50:00,
2013-02-26 05:55:00,65.6,62.9,30.16,SE,132,4.0,13.0,91,0.00,,,0.03,Wunderground v.1.15,2013-02-26 15:55:00,
2013-02-26 06:01:00,65.7,63.3,30.17,SE,130,6.0,15.0,92,0.05,,,0.04,Wunderground v.1.15,2013-02-26 16:01:00,
2013-02-26 06:07:00,65.6,63.2,30.16,East,101,6.0,15.0,92,0.05,,,0.04,Wunderground v.1.15,2013-02-26 16:07:00,
2013-02-26 06:13:00,65.2,62.5,30.16,ESE,113,5.0,16.0,91,0.05,,,0.04,Wunderground v.1.15,2013-02-26 16:13:00,
2013-02-26 06:19:00,65.0,62.6,30.17,SE,138,5.0,16.0,92,0.00,,,0.04,Wunderground v.1.15,2013-02-26 16:19:00,
2013-02-26 06:24:00,64.9,62.5,30.17,SE,141,5.0,16.0,92,0.00,,,0.04,Wunderground v.1.15,2013-02-26 16:24:00,
2013-02-26 06:30:00,64.9,62.5,30.17,SE,145,5.0,16.0,92,0.00,,,0.04,Wunderground v.1.15,2013-02-26 16:30:00,
2013-02-26 06:36:00,65.0,62.6,30.17,SE,142,6.0,16.0,92,0.00,,,0.04,Wunderground v.1.15,2013-02-26 16:36:00,
2013-02-26 06:41:00,65.0,62.6,30.17,SSE,159,6.0,12.0,92,0.00,,,0.04,Wunderground v.1.15,2013-02-26 16:41:00,
2013-02-26 06:47:00,64.9,62.2,30.18,SE,130,5.0,12.0,91,0.00,,,0.04,Wunderground v.1.15,2013-02-26 16:47:00,
2013-02-26 06:53:00,65.0,62.3,30.18,SE,141,4.0,12.0,91,0.00,,,0.04,Wunderground v.1.15,2013-02-26 16:53:00,
2013-02-26 06:58:00,65.0,62.3,30.18,SE,146,3.0,12.0,91,0.00,,,0.04,Wunderground v.1.15,2013-02-26 16:58:00,
2013-02-26 07:03:00,65.1,62.4,30.18,SSE,148,5.0,12.0,91,0.00,,,0.04,Wunderground v.1.15,2013-02-26 17:03:00,
2013-02-26 07:09:00,65.3,62.3,30.18,SSE,157,5.0,12.0,90,0.00,,,0.04,Wunderground v.1.15,2013-02-26 17:09:00,
2013-02-26 07:15:00,65.5,62.5,30.18,SSE,152,5.0,11.0,90,0.00,,,0.04,Wunderground v.1.15,2013-02-26 17:15:00,
2013-02-26 07:21:00,65.7,62.7,30.18,SE,139,5.0,19.0,90,0.00,,,0.04,Wunderground v.1.15,2013-02-26 17:21:00,
2013-02-26 07:26:00,66.0,62.7,30.19,SSE,153,6.0,19.0,89,0.00,,,0.04,Wunderground v.1.15,2013-02-26 17:26:00,
2013-02-26 07:31:00,66.1,62.8,30.19,SE,143,7.0,17.0,89,0.00,,,0.04,Wunderground v.1.15,2013-02-26 17:31:00,
2013-02-26 07:37:00,66.2,63.2,30.19,SE,133,6.0,17.0,90,0.00,,,0.04,Wunderground v.1.15,2013-02-26 17:37:00,
2013-02-26 07:42:00,66.5,63.5,30.19,SE,130,5.0,17.0,90,0.00,,,0.04,Wunderground v.1.15,2013-02-26 17:42:00,
2013-02-26 07:48:00,66.5,63.2,30.19,SE,145,6.0,17.0,89,0.00,,,0.04,Wunderground v.1.15,2013-02-26 17:48:00,
2013-02-26 07:54:00,66.5,62.8,30.19,SSE,163,7.0,13.0,88,0.00,,,0.04,Wunderground v.1.15,2013-02-26 17:54:00,
2013-02-26 08:00:00,66.7,62.7,30.20,SE,131,6.0,6.0,87,0.00,,,0.04,Wunderground v.1.15,2013-02-26 18:00:00,
2013-02-26 08:06:00,66.8,62.8,30.20,SSE,149,6.0,15.0,87,0.00,,,0.04,Wunderground v.1.15,2013-02-26 18:06:00,
2013-02-26 08:11:00,66.9,63.2,30.20,SE,140,6.0,15.0,88,0.00,,,0.04,Wunderground v.1.15,2013-02-26 18:11:00,
2013-02-26 08:17:00,67.3,63.3,30.20,SE,142,5.0,17.0,87,0.00,,,0.04,Wunderground v.1.15,2013-02-26 18:17:00,
2013-02-26 08:23:00,67.6,63.6,30.20,SE,138,6.0,17.0,87,0.00,,,0.04,Wunderground v.1.15,2013-02-26 18:23:00,
2013-02-26 08:28:00,68.4,64.4,30.20,SE,137,5.0,17.0,87,0.00,,,0.04,Wunderground v.1.15,2013-02-26 18:28:00,
2013-02-26 08:33:00,69.1,64.4,30.20,ESE,110,6.0,17.0,85,0.00,,,0.04,Wunderground v.1.15,2013-02-26 18:33:00,
2013-02-26 08:38:00,69.6,64.2,30.20,SE,142,7.0,17.0,83,0.00,,,0.04,Wunderground v.1.15,2013-02-26 18:38:00,
2013-02-26 08:44:00,70.1,64.7,30.21,SSE,148,7.0,16.0,83,0.00,,,0.04,Wunderground v.1.15,2013-02-26 18:44:00,
2013-02-26 08:50:00,69.9,64.2,30.21,SE,142,7.0,7.0,82,0.00,,,0.04,Wunderground v.1.15,2013-02-26 18:50:00,
2013-02-26 08:55:00,69.5,64.1,30.21,SE,125,5.0,16.0,83,0.00,,,0.04,Wunderground v.1.15,2013-02-26 18:55:00,
2013-02-26 09:01:00,69.5,64.8,30.21,SSE,148,4.0,18.0,85,0.00,,,0.04,Wunderground v.1.15,2013-02-26 19:01:00,
2013-02-26 09:06:00,70.3,65.2,30.21,ENE,62,5.0,18.0,84,0.00,,,0.04,Wunderground v.1.15,2013-02-26 19:06:00,
2013-02-26 09:12:00,71.0,64.9,30.21,SE,130,7.0,18.0,81,0.00,,,0.04,Wunderground v.1.15,2013-02-26 19:12:00,
2013-02-26 09:17:00,71.0,64.5,30.21,ENE,78,7.0,18.0,80,0.00,,,0.04,Wunderground v.1.15,2013-02-26 19:17:00,
2013-02-26 09:23:00,70.5,64.4,30.21,East,101,6.0,18.0,81,0.00,,,0.04,Wunderground v.1.15,2013-02-26 19:23:00,
2013-02-26 09:28:00,70.5,64.7,30.21,ESE,123,5.0,18.0,82,0.00,,,0.04,Wunderground v.1.15,2013-02-26 19:28:00,
2013-02-26 09:33:00,71.3,65.2,30.21,ESE,105,7.0,16.0,81,0.00,,,0.04,Wunderground v.1.15,2013-02-26 19:33:00,
2013-02-26 09:39:00,71.7,64.1,30.21,SE,130,8.0,23.0,77,0.00,,,0.04,Wunderground v.1.15,2013-02-26 19:39:00,
2013-02-26 09:44:00,71.9,64.7,30.22,ENE,69,7.0,23.0,78,0.00,,,0.04,Wunderground v.1.15,2013-02-26 19:44:00,
2013-02-26 09:49:00,72.0,64.8,30.21,East,80,7.0,25.0,78,0.00,,,0.04,Wunderground v.1.15,2013-02-26 19:49:00,
2013-02-26 09:55:00,72.0,64.4,30.21,East,80,6.0,25.0,77,0.00,,,0.04,Wunderground v.1.15,2013-02-26 19:55:00,
2013-02-26 10:00:00,72.1,64.5,30.21,SE,129,6.0,25.0,77,0.00,,,0.04,Wunderground v.1.15,2013-02-26 20:00:00,
2013-02-26 10:06:00,72.6,64.2,30.21,East,90,7.0,25.0,75,0.00,,,0.04,Wunderground v.1.15,2013-02-26 20:06:00,
2013-02-26 10:11:00,72.7,64.7,30.21,SE,138,8.0,19.0,76,0.00,,,0.04,Wunderground v.1.15,2013-02-26 20:11:00,
2013-02-26 10:16:00,72.8,64.4,30.21,SSE,159,9.0,21.0,75,0.00,,,0.04,Wunderground v.1.15,2013-02-26 20:16:00,
2013-02-26 10:22:00,73.1,65.1,30.21,SSE,149,10.0,21.0,76,0.00,,,0.04,Wunderground v.1.15,2013-02-26 20:22:00,
2013-02-26 10:28:00,73.6,65.2,30.21,SE,134,9.0,21.0,75,0.00,,,0.04,Wunderground v.1.15,2013-02-26 20:28:00,
2013-02-26 10:33:00,73.7,64.9,30.21,SSE,161,6.0,24.0,74,0.00,,,0.04,Wunderground v.1.15,2013-02-26 20:33:00,
2013-02-26 10:39:00,73.6,65.6,30.21,ESE,109,7.0,24.0,76,0.00,,,0.04,Wunderground v.1.15,2013-02-26 20:39:00,
2013-02-26 10:44:00,74.0,66.0,30.21,SSE,159,7.0,24.0,76,0.00,,,0.04,Wunderground v.1.15,2013-02-26 20:44:00,
2013-02-26 10:50:00,74.7,67.0,30.21,East,91,6.0,6.0,77,0.00,,,0.04,Wunderground v.1.15,2013-02-26 20:50:00,
2013-02-26 10:56:00,74.5,65.7,30.21,SSE,149,7.0,22.0,74,0.00,,,0.04,Wunderground v.1.15,2013-02-26 20:56:00,
2013-02-26 11:01:00,74.7,66.2,30.21,ESE,110,8.0,20.0,75,0.00,,,0.04,Wunderground v.1.15,2013-02-26 21:01:00,
2013-02-26 11:07:00,74.0,65.6,30.21,ESE,112,6.0,20.0,75,0.00,,,0.04,Wunderground v.1.15,2013-02-26 21:07:00,
2013-02-26 11:13:00,74.4,65.6,30.21,SE,140,5.0,20.0,74,0.00,,,0.04,Wunderground v.1.15,2013-02-26 21:13:00,
2013-02-26 11:19:00,75.2,65.9,30.20,SSE,149,7.0,20.0,73,0.00,,,0.04,Wunderground v.1.15,2013-02-26 21:19:00,
2013-02-26 11:25:00,75.5,65.4,30.20,ENE,77,8.0,19.0,71,0.00,,,0.04,Wunderground v.1.15,2013-02-26 21:25:00,
2013-02-26 11:31:00,75.2,64.7,30.20,ESE,112,8.0,11.0,70,0.00,,,0.04,Wunderground v.1.15,2013-02-26 21:31:00,
2013-02-26 11:37:00,74.8,65.2,30.20,ENE,69,8.0,19.0,72,0.00,,,0.04,Wunderground v.1.15,2013-02-26 21:37:00,
2013-02-26 11:42:00,74.5,65.3,30.20,ENE,59,7.0,19.0,73,0.00,,,0.04,Wunderground v.1.15,2013-02-26 21:42:00,
2013-02-26 11:48:00,74.4,64.8,30.20,ESE,123,7.0,19.0,72,0.00,,,0.04,Wunderground v.1.15,2013-02-26 21:48:00,
2013-02-26 11:53:00,74.1,64.9,30.19,ENE,67,7.0,16.0,73,0.00,,,0.04,Wunderground v.1.15,2013-02-26 21:53:00,
2013-02-26 11:59:00,74.3,65.5,30.19,East,85,7.0,16.0,74,0.00,,,0.04,Wunderground v.1.15,2013-02-26 21:59:00,
2013-02-26 12:04:00,74.5,66.1,30.19,East,94,6.0,21.0,75,0.00,,,0.04,Wunderground v.1.15,2013-02-26 22:04:00,
2013-02-26 12:09:00,74.0,64.0,30.19,East,96,7.0,21.0,71,0.00,,,0.04,Wunderground v.1.15,2013-02-26 22:09:00,
2013-02-26 12:15:00,73.4,63.8,30.19,ENE,70,6.0,21.0,72,0.00,,,0.04,Wunderground v.1.15,2013-02-26 22:15:00,
2013-02-26 12:21:00,74.0,64.8,30.19,ESE,102,7.0,16.0,73,0.00,,,0.04,Wunderground v.1.15,2013-02-26 22:21:00,
2013-02-26 12:26:00,74.5,65.3,30.19,East,96,6.0,16.0,73,0.00,,,0.04,Wunderground v.1.15,2013-02-26 22:26:00,
2013-02-26 12:32:00,73.4,63.4,30.19,ENE,75,6.0,18.0,71,0.00,,,0.04,Wunderground v.1.15,2013-02-26 22:32:00,
2013-02-26 12:38:00,72.8,64.0,30.19,ESE,109,8.0,18.0,74,0.00,,,0.04,Wunderground v.1.15,2013-02-26 22:38:00,
2013-02-26 12:43:00,73.9,64.7,30.19,East,95,6.0,18.0,73,0.00,,,0.04,Wunderground v.1.15,2013-02-26 22:43:00,
2013-02-26 12:49:00,73.7,64.5,30.19,ESE,102,6.0,18.0,73,0.00,,,0.04,Wunderground v.1.15,2013-02-26 22:49:00,
2013-02-26 12:55:00,73.2,64.4,30.19,SE,133,7.0,15.0,74,0.00,,,0.04,Wunderground v.1.15,2013-02-26 22:55:00,
2013-02-26 13:00:00,73.3,65.3,30.19,East,89,7.0,7.0,76,0.00,,,0.04,Wunderground v.1.15,2013-02-26 23:00:00,
2013-02-26 13:05:00,73.9,66.2,30.18,East,81,6.0,19.0,77,0.00,,,0.04,Wunderground v.1.15,2013-02-26 23:05:00,
2013-02-26 13:11:00,74.6,65.8,30.18,NE,45,5.0,19.0,74,0.00,,,0.04,Wunderground v.1.15,2013-02-26 23:11:00,
2013-02-26 13:16:00,75.3,65.2,30.18,SE,142,6.0,19.0,71,0.00,,,0.04,Wunderground v.1.15,2013-02-26 23:16:00,
2013-02-26 13:22:00,75.8,64.5,30.18,East,92,7.0,15.0,68,0.00,,,0.04,Wunderground v.1.15,2013-02-26 23:22:00,
2013-02-26 13:27:00,74.9,65.7,30.18,East,98,6.0,15.0,73,0.00,,,0.04,Wunderground v.1.15,2013-02-26 23:27:00,
2013-02-26 13:33:00,75.6,66.3,30.18,ESE,119,5.0,17.0,73,0.00,,,0.04,Wunderground v.1.15,2013-02-26 23:33:00,
2013-02-26 13:39:00,75.7,65.6,30.17,East,93,5.0,17.0,71,0.00,,,0.04,Wunderground v.1.15,2013-02-26 23:39:00,
2013-02-26 13:44:00,75.9,65.0,30.17,SSE,150,4.0,17.0,69,0.00,,,0.04,Wunderground v.1.15,2013-02-26 23:44:00,
2013-02-26 13:50:00,75.4,65.7,30.17,ENE,68,5.0,15.0,72,0.00,,,0.04,Wunderground v.1.15,2013-02-26 23:50:00,
2013-02-26 13:56:00,74.2,65.0,30.17,East,94,5.0,15.0,73,0.00,,,0.04,Wunderground v.1.15,2013-02-26 23:56:00,
2013-02-26 14:01:00,74.3,65.9,30.17,East,80,6.0,15.0,75,0.00,,,0.04,Wunderground v.1.15,2013-02-27 00:01:00,
2013-02-26 14:07:00,75.2,65.6,30.17,ESE,115,5.0,15.0,72,0.00,,,0.04,Wunderground v.1.15,2013-02-27 00:07:00,
2013-02-26 14:13:00,74.8,64.8,30.17,East,101,4.0,14.0,71,0.00,,,0.04,Wunderground v.1.15,2013-02-27 00:13:00,
2013-02-26 14:19:00,74.1,64.9,30.17,ENE,59,5.0,15.0,73,0.00,,,0.04,Wunderground v.1.15,2013-02-27 00:19:00,
2013-02-26 14:24:00,73.7,64.1,30.17,ESE,104,7.0,14.0,72,0.00,,,0.04,Wunderground v.1.15,2013-02-27 00:24:00,
2013-02-26 14:30:00,74.4,65.2,30.16,ESE,123,6.0,6.0,73,0.00,,,0.04,Wunderground v.1.15,2013-02-27 00:30:00,
2013-02-26 14:36:00,75.1,65.5,30.16,SE,144,5.0,16.0,72,0.00,,,0.04,Wunderground v.1.15,2013-02-27 00:36:00,
2013-02-26 14:41:00,75.7,66.0,30.16,East,84,5.0,16.0,72,0.00,,,0.04,Wunderground v.1.15,2013-02-27 00:41:00,
2013-02-26 14:47:00,74.8,64.8,30.16,East,94,4.0,16.0,71,0.00,,,0.04,Wunderground v.1.15,2013-02-27 00:47:00,
2013-02-26 14:53:00,74.4,64.8,30.16,ENE,62,4.0,13.0,72,0.00,,,0.04,Wunderground v.1.15,2013-02-27 00:53:00,
2013-02-26 14:58:00,74.6,64.2,30.16,ESE,105,5.0,13.0,70,0.00,,,0.04,Wunderground v.1.15,2013-02-27 00:58:00,
2013-02-26 15:03:00,75.0,64.5,30.15,ESE,114,6.0,15.0,70,0.00,,,0.04,Wunderground v.1.15,2013-02-27 01:03:00,
2013-02-26 15:09:00,74.6,64.2,30.16,East,100,7.0,15.0,70,0.00,,,0.04,Wunderground v.1.15,2013-02-27 01:09:00,
2013-02-26 15:14:00,74.8,65.6,30.15,ESE,122,6.0,15.0,73,0.00,,,0.04,Wunderground v.1.15,2013-02-27 01:14:00,
2013-02-26 15:20:00,74.3,64.3,30.16,East,94,6.0,6.0,71,0.00,,,0.04,Wunderground v.1.15,2013-02-27 01:20:00,
2013-02-26 15:26:00,74.1,64.9,30.16,ENE,76,5.0,18.0,73,0.00,,,0.04,Wunderground v.1.15,2013-02-27 01:26:00,
2013-02-26 15:31:00,73.9,65.1,30.15,ENE,65,4.0,19.0,74,0.00,,,0.04,Wunderground v.1.15,2013-02-27 01:31:00,
2013-02-26 15:37:00,74.3,65.5,30.16,ENE,70,4.0,19.0,74,0.00,,,0.04,Wunderground v.1.15,2013-02-27 01:37:00,
2013-02-26 15:43:00,73.8,65.0,30.15,East,88,4.0,19.0,74,0.00,,,0.04,Wunderground v.1.15,2013-02-27 01:43:00,
2013-02-26 15:48:00,73.5,65.1,30.15,East,94,5.0,19.0,75,0.00,,,0.04,Wunderground v.1.15,2013-02-27 01:48:00,
2013-02-26 15:54:00,73.4,65.0,30.15,East,80,7.0,14.0,75,0.00,,,0.04,Wunderground v.1.15,2013-02-27 01:54:00,
2013-02-26 16:00:00,73.1,64.7,30.15,ESE,123,7.0,14.0,75,0.00,,,0.04,Wunderground v.1.15,2013-02-27 02:00:00,
2013-02-26 16:05:00,72.5,64.5,30.15,ENE,70,6.0,17.0,76,0.00,,,0.04,Wunderground v.1.15,2013-02-27 02:05:00,
2013-02-26 16:10:00,73.2,65.2,30.15,East,94,5.0,5.0,76,0.00,,,0.04,Wunderground v.1.15,2013-02-27 02:10:00,
2013-02-26 16:16:00,73.6,66.3,30.15,East,100,4.0,17.0,78,0.00,,,0.04,Wunderground v.1.15,2013-02-27 02:16:00,
2013-02-26 16:22:00,71.9,64.7,30.15,ENE,72,5.0,13.0,78,0.00,,,0.04,Wunderground v.1.15,2013-02-27 02:22:00,
2013-02-26 16:28:00,70.8,64.7,30.15,East,92,5.0,13.0,81,0.00,,,0.04,Wunderground v.1.15,2013-02-27 02:28:00,
2013-02-26 16:33:00,70.7,64.9,30.15,SE,128,5.0,15.0,82,0.00,,,0.04,Wunderground v.1.15,2013-02-27 02:33:00,
2013-02-26 16:39:00,71.1,64.6,30.15,NE,51,5.0,15.0,80,0.00,,,0.04,Wunderground v.1.15,2013-02-27 02:39:00,
2013-02-26 16:45:00,71.2,64.4,30.15,SSE,157,5.0,15.0,79,0.00,,,0.04,Wunderground v.1.15,2013-02-27 02:45:00,
2013-02-26 16:50:00,71.0,64.2,30.16,ENE,76,6.0,17.0,79,0.00,,,0.04,Wunderground v.1.15,2013-02-27 02:50:00,
2013-02-26 16:56:00,70.8,64.0,30.16,NE,56,6.0,17.0,79,0.00,,,0.04,Wunderground v.1.15,2013-02-27 02:56:00,
2013-02-26 17:01:00,70.9,64.4,30.16,ENE,71,6.0,6.0,80,0.00,,,0.04,Wunderground v.1.15,2013-02-27 03:01:00,
2013-02-26 17:06:00,71.0,64.5,30.16,East,91,5.0,13.0,80,0.00,,,0.04,Wunderground v.1.15,2013-02-27 03:06:00,
2013-02-26 17:12:00,70.9,64.1,30.16,East,96,7.0,13.0,79,0.00,,,0.04,Wunderground v.1.15,2013-02-27 03:12:00,
2013-02-26 17:18:00,70.7,63.9,30.16,ENE,69,6.0,18.0,79,0.00,,,0.04,Wunderground v.1.15,2013-02-27 03:18:00,
2013-02-26 17:24:00,70.4,63.6,30.16,ENE,74,5.0,18.0,79,0.00,,,0.04,Wunderground v.1.15,2013-02-27 03:24:00,
2013-02-26 17:30:00,70.2,63.7,30.16,SE,140,4.0,18.0,80,0.00,,,0.04,Wunderground v.1.15,2013-02-27 03:30:00,
2013-02-26 17:36:00,70.1,63.6,30.16,SSE,157,5.0,18.0,80,0.00,,,0.04,Wunderground v.1.15,2013-02-27 03:36:00,
2013-02-26 17:41:00,70.0,63.9,30.16,ENE,68,4.0,15.0,81,0.00,,,0.04,Wunderground v.1.15,2013-02-27 03:41:00,
2013-02-26 17:47:00,69.9,63.8,30.17,East,84,3.0,15.0,81,0.00,,,0.04,Wunderground v.1.15,2013-02-27 03:47:00,
2013-02-26 17:53:00,69.9,63.8,30.17,East,86,4.0,12.0,81,0.00,,,0.04,Wunderground v.1.15,2013-02-27 03:53:00,
2013-02-26 17:58:00,69.9,63.8,30.17,ESE,109,4.0,12.0,81,0.00,,,0.04,Wunderground v.1.15,2013-02-27 03:58:00,
2013-02-26 18:03:00,69.9,63.8,30.17,SE,136,4.0,13.0,81,0.00,,,0.04,Wunderground v.1.15,2013-02-27 04:03:00,
2013-02-26 18:09:00,69.7,63.6,30.17,ESE,123,4.0,13.0,81,0.00,,,0.04,Wunderground v.1.15,2013-02-27 04:09:00,
2013-02-26 18:15:00,69.7,64.0,30.17,East,101,3.0,13.0,82,0.00,,,0.04,Wunderground v.1.15,2013-02-27 04:15:00,
2013-02-26 18:20:00,69.6,63.9,30.18,East,101,2.0,2.0,82,0.00,,,0.04,Wunderground v.1.15,2013-02-27 04:20:00,
2013-02-26 18:26:00,69.5,64.1,30.18,SE,130,3.0,11.0,83,0.00,,,0.04,Wunderground v.1.15,2013-02-27 04:26:00,
2013-02-26 18:31:00,69.4,64.0,30.18,ENE,57,4.0,12.0,83,0.00,,,0.04,Wunderground v.1.15,2013-02-27 04:31:00,
2013-02-26 18:37:00,69.2,63.8,30.18,East,86,4.0,12.0,83,0.00,,,0.04,Wunderground v.1.15,2013-02-27 04:37:00,
2013-02-26 18:43:00,69.1,64.1,30.18,ESE,108,4.0,12.0,84,0.00,,,0.04,Wunderground v.1.15,2013-02-27 04:43:00,
2013-02-26 18:49:00,68.9,63.9,30.18,ESE,109,5.0,14.0,84,0.00,,,0.04,Wunderground v.1.15,2013-02-27 04:49:00,
2013-02-26 18:55:00,68.7,63.7,30.18,SE,144,3.0,14.0,84,0.00,,,0.04,Wunderground v.1.15,2013-02-27 04:55:00,
2013-02-26 19:00:00,68.6,63.6,30.18,SE,136,3.0,3.0,84,0.00,,,0.04,Wunderground v.1.15,2013-02-27 05:00:00,
2013-02-26 19:01:00,68.5,63.5,30.18,East,94,3.0,7.0,84,0.00,,,0.04,Wunderground v.1.15,2013-02-27 05:01:00,
2013-02-26 19:03:00,68.5,63.5,30.19,SE,128,4.0,11.0,84,0.00,,,0.04,Wunderground v.1.15,2013-02-27 05:03:00,
2013-02-26 19:07:00,68.4,63.4,30.18,SE,130,3.0,11.0,84,0.00,,,0.04,Wunderground v.1.15,2013-02-27 05:07:00,
2013-02-26 19:13:00,68.2,63.2,30.19,SE,145,3.0,11.0,84,0.00,,,0.04,Wunderground v.1.15,2013-02-27 05:13:00,
2013-02-26 19:19:00,68.0,63.3,30.19,SE,140,4.0,11.0,85,0.00,,,0.04,Wunderground v.1.15,2013-02-27 05:19:00,
2013-02-26 19:24:00,67.9,63.2,30.19,SE,138,4.0,11.0,85,0.00,,,0.04,Wunderground v.1.15,2013-02-27 05:24:00,
2013-02-26 19:30:00,68.0,63.0,30.19,SE,133,6.0,6.0,84,0.00,,,0.04,Wunderground v.1.15,2013-02-27 05:30:00,
2013-02-26 19:36:00,68.0,63.0,30.19,SSE,151,6.0,13.0,84,0.00,,,0.04,Wunderground v.1.15,2013-02-27 05:36:00,
2013-02-26 19:41:00,68.0,63.3,30.19,SE,133,5.0,13.0,85,0.00,,,0.04,Wunderground v.1.15,2013-02-27 05:41:00,
2013-02-26 19:47:00,68.1,63.4,30.20,ESE,119,4.0,13.0,85,0.00,,,0.04,Wunderground v.1.15,2013-02-27 05:47:00,
2013-02-26 19:53:00,67.9,63.2,30.20,SSE,150,4.0,13.0,85,0.00,,,0.04,Wunderground v.1.15,2013-02-27 05:53:00,
2013-02-26 19:59:00,67.8,63.1,30.20,SE,142,4.0,13.0,85,0.00,,,0.04,Wunderground v.1.15,2013-02-27 05:59:00,
2013-02-26 20:05:00,67.7,63.0,30.20,SE,144,6.0,13.0,85,0.00,,,0.04,Wunderground v.1.15,2013-02-27 06:05:00,
2013-02-26 20:10:00,67.7,63.0,30.20,SE,146,6.0,6.0,85,0.00,,,0.04,Wunderground v.1.15,2013-02-27 06:10:00,
2013-02-26 20:16:00,67.7,63.0,30.20,SSE,152,6.0,17.0,85,0.00,,,0.04,Wunderground v.1.15,2013-02-27 06:16:00,
2013-02-26 20:22:00,67.8,63.1,30.20,East,94,7.0,17.0,85,0.00,,,0.04,Wunderground v.1.15,2013-02-27 06:22:00,
2013-02-26 20:27:00,67.8,63.1,30.20,ESE,119,6.0,17.0,85,0.00,,,0.04,Wunderground v.1.15,2013-02-27 06:27:00,
2013-02-26 20:33:00,67.9,63.2,30.20,ESE,106,4.0,13.0,85,0.00,,,0.04,Wunderground v.1.15,2013-02-27 06:33:00,
2013-02-26 20:39:00,67.9,63.2,30.20,ESE,112,4.0,13.0,85,0.00,,,0.04,Wunderground v.1.15,2013-02-27 06:39:00,
2013-02-26 20:44:00,67.9,63.2,30.21,SE,130,5.0,13.0,85,0.00,,,0.04,Wunderground v.1.15,2013-02-27 06:44:00,
2013-02-26 20:50:00,67.7,62.7,30.21,SE,146,5.0,12.0,84,0.00,,,0.04,Wunderground v.1.15,2013-02-27 06:50:00,
2013-02-26 20:55:00,67.7,62.7,30.21,SE,130,6.0,12.0,84,0.00,,,0.04,Wunderground v.1.15,2013-02-27 06:55:00,
2013-02-26 21:01:00,67.6,62.6,30.21,SE,139,5.0,13.0,84,0.00,,,0.04,Wunderground v.1.15,2013-02-27 07:01:00,
2013-02-26 21:07:00,67.6,62.9,30.21,SE,140,4.0,13.0,85,0.00,,,0.04,Wunderground v.1.15,2013-02-27 07:07:00,
2013-02-26 21:12:00,67.5,62.8,30.21,SSE,150,4.0,13.0,85,0.00,,,0.04,Wunderground v.1.15,2013-02-27 07:12:00,
2013-02-26 21:18:00,67.6,63.3,30.21,SE,133,4.0,13.0,86,0.00,,,0.04,Wunderground v.1.15,2013-02-27 07:18:00,
2013-02-26 21:24:00,67.7,63.4,30.21,SE,144,5.0,11.0,86,0.00,,,0.04,Wunderground v.1.15,2013-02-27 07:24:00,
2013-02-26 21:29:00,67.6,63.3,30.21,SE,126,4.0,11.0,86,0.00,,,0.04,Wunderground v.1.15,2013-02-27 07:29:00,
2013-02-26 21:35:00,67.5,63.2,30.21,SSE,147,3.0,13.0,86,0.00,,,0.04,Wunderground v.1.15,2013-02-27 07:35:00,
2013-02-26 21:41:00,67.4,63.1,30.22,SE,142,3.0,13.0,86,0.00,,,0.04,Wunderground v.1.15,2013-02-27 07:41:00,
2013-02-26 21:46:00,67.5,63.2,30.22,SE,140,3.0,13.0,86,0.00,,,0.04,Wunderground v.1.15,2013-02-27 07:46:00,
2013-02-26 21:52:00,67.6,63.6,30.22,ENE,76,5.0,9.0,87,0.00,,,0.04,Wunderground v.1.15,2013-02-27 07:52:00,
2013-02-26 21:57:00,67.4,63.1,30.22,East,82,5.0,9.0,86,0.00,,,0.04,Wunderground v.1.15,2013-02-27 07:57:00,
2013-02-26 22:03:00,67.2,63.2,30.22,SE,146,4.0,16.0,87,0.00,,,0.04,Wunderground v.1.15,2013-02-27 08:03:00,
2013-02-26 22:09:00,67.0,63.0,30.22,SE,144,4.0,16.0,87,0.00,,,0.04,Wunderground v.1.15,2013-02-27 08:09:00,
2013-02-26 22:15:00,66.8,63.1,30.22,SE,133,6.0,16.0,88,0.00,,,0.04,Wunderground v.1.15,2013-02-27 08:15:00,
2013-02-26 22:20:00,66.8,63.1,30.22,SSE,157,5.0,5.0,88,0.00,,,0.04,Wunderground v.1.15,2013-02-27 08:20:00,
2013-02-26 22:26:00,66.9,63.2,30.22,SE,132,4.0,11.0,88,0.00,,,0.04,Wunderground v.1.15,2013-02-27 08:26:00,
2013-02-26 22:31:00,67.0,63.3,30.22,ESE,120,4.0,12.0,88,0.00,,,0.04,Wunderground v.1.15,2013-02-27 08:31:00,
2013-02-26 22:37:00,67.1,63.1,30.22,ESE,118,4.0,12.0,87,0.00,,,0.04,Wunderground v.1.15,2013-02-27 08:37:00,
2013-02-26 22:43:00,67.1,63.1,30.22,SE,140,4.0,12.0,87,0.00,,,0.04,Wunderground v.1.15,2013-02-27 08:43:00,
2013-02-26 22:48:00,67.1,63.1,30.22,SSE,148,5.0,12.0,87,0.00,,,0.04,Wunderground v.1.15,2013-02-27 08:48:00,
2013-02-26 22:54:00,67.2,63.2,30.22,SE,127,5.0,11.0,87,0.00,,,0.04,Wunderground v.1.15,2013-02-27 08:54:00,
2013-02-26 23:00:00,67.2,63.2,30.22,SE,134,5.0,11.0,87,0.00,,,0.04,Wunderground v.1.15,2013-02-27 09:00:00,
2013-02-26 23:05:00,67.4,63.1,30.22,ESE,115,5.0,14.0,86,0.00,,,0.04,Wunderground v.1.15,2013-02-27 09:05:00,
2013-02-26 23:11:00,67.5,63.2,30.22,SE,139,5.0,14.0,86,0.00,,,0.04,Wunderground v.1.15,2013-02-27 09:11:00,
2013-02-26 23:17:00,67.6,63.3,30.22,SE,146,5.0,14.0,86,0.00,,,0.04,Wunderground v.1.15,2013-02-27 09:17:00,
2013-02-26 23:23:00,67.6,63.6,30.22,ESE,123,5.0,11.0,87,0.00,,,0.04,Wunderground v.1.15,2013-02-27 09:23:00,
2013-02-26 23:28:00,67.4,63.4,30.21,SE,125,5.0,11.0,87,0.00,,,0.05,Wunderground v.1.15,2013-02-27 09:28:00,
2013-02-26 23:33:00,67.3,63.6,30.21,East,100,5.0,17.0,88,0.06,,,0.06,Wunderground v.1.15,2013-02-27 09:33:00,
2013-02-26 23:39:00,67.0,63.6,30.21,SE,136,5.0,17.0,89,0.06,,,0.06,Wunderground v.1.15,2013-02-27 09:39:00,
2013-02-26 23:44:00,66.8,63.8,30.21,ESE,119,5.0,17.0,90,0.05,,,0.06,Wunderground v.1.15,2013-02-27 09:44:00,
2013-02-26 23:50:00,66.6,63.6,30.21,SE,142,6.0,12.0,90,0.00,,,0.06,Wunderground v.1.15,2013-02-27 09:50:00,
2013-02-26 23:56:00,66.5,63.5,30.21,SSE,160,7.0,12.0,90,0.00,,,0.06,Wunderground v.1.15,2013-02-27 09:56:00,